Time;durP1;ratioP1;P1;durP2;ratioP2;P2;SDS_P1;SDS_P2;PMS_P1;PMS_P2;Temp;Humidity;BMP_temperature;BMP_pressure;BME280_temperature;BME280_humidity;BME280_pressure;Samples;Min_cycle;Max_cycle;Signal;HPM_P1;HPM_P2
2021/06/03 00:01:52;;;;;;;17.20;14.60;;;20.00;99.90;;;;;;5099088;28;20485;-74
2021/06/03 00:04:20;;;;;;;15.07;13.97;;;20.00;99.90;;;;;;5089384;28;20827;-73
2021/06/03 00:06:46;;;;;;;19.87;14.60;;;20.00;99.90;;;;;;5091953;28;20462;-73
2021/06/03 00:09:13;;;;;;;15.70;14.20;;;19.90;99.90;;;;;;5091885;28;20471;-73
2021/06/03 00:11:40;;;;;;;15.13;13.93;;;19.90;99.90;;;;;;5101001;28;20465;-74
2021/06/03 00:14:07;;;;;;;15.03;13.53;;;19.80;99.90;;;;;;5100442;28;20534;-74
2021/06/03 00:16:34;;;;;;;15.60;14.20;;;19.80;99.90;;;;;;5098856;28;20453;-73
2021/06/03 00:19:01;;;;;;;15.20;13.90;;;19.80;99.90;;;;;;5098664;28;20468;-73
2021/06/03 00:21:29;;;;;;;16.63;14.80;;;19.70;99.90;;;;;;5096910;28;20519;-74
2021/06/03 00:23:56;;;;;;;16.23;14.77;;;19.70;99.90;;;;;;5097213;27;20496;-73
2021/06/03 00:26:22;;;;;;;16.03;14.53;;;19.80;99.90;;;;;;5100896;28;20458;-73
2021/06/03 00:28:49;;;;;;;21.10;14.50;;;19.70;99.90;;;;;;5102928;28;20458;-73
2021/06/03 00:31:15;;;;;;;16.40;14.80;;;19.80;99.90;;;;;;5097827;28;20553;-74
2021/06/03 00:33:42;;;;;;;17.90;15.33;;;19.70;99.90;;;;;;5098755;28;20457;-72
2021/06/03 00:36:09;;;;;;;23.13;14.40;;;19.60;99.90;;;;;;5096041;28;20515;-73
2021/06/03 00:38:38;;;;;;;17.77;14.53;;;19.60;99.90;;;;;;5094463;28;20536;-72
2021/06/03 00:41:05;;;;;;;15.73;14.70;;;19.60;99.90;;;;;;5098023;28;20471;-73
2021/06/03 00:43:31;;;;;;;15.40;14.13;;;19.60;99.90;;;;;;5097412;28;20563;-73
2021/06/03 00:45:58;;;;;;;16.17;14.10;;;19.50;99.90;;;;;;5097503;28;20525;-73
2021/06/03 00:48:25;;;;;;;16.40;14.70;;;19.50;99.90;;;;;;5099146;28;20744;-72
2021/06/03 00:50:53;;;;;;;17.43;15.20;;;19.40;99.90;;;;;;5096132;28;20633;-73
2021/06/03 00:53:20;;;;;;;19.40;15.73;;;19.40;99.90;;;;;;5096476;28;20469;-73
2021/06/03 00:55:51;;;;;;;17.90;16.00;;;19.30;99.90;;;;;;5099726;28;20545;-75
2021/06/03 00:58:18;;;;;;;18.27;15.50;;;19.20;99.90;;;;;;5096598;28;20483;-73
2021/06/03 01:00:45;;;;;;;16.63;14.90;;;19.20;99.90;;;;;;5097287;28;20466;-73
2021/06/03 01:03:12;;;;;;;20.00;15.37;;;19.10;99.90;;;;;;5099621;28;20820;-73
2021/06/03 01:05:43;;;;;;;16.23;14.50;;;19.10;99.90;;;;;;5093657;28;20469;-73
2021/06/03 01:08:12;;;;;;;16.00;14.70;;;19.00;99.90;;;;;;5095473;28;20457;-73
2021/06/03 01:10:41;;;;;;;24.10;15.37;;;19.00;99.90;;;;;;5095229;28;20466;-75
2021/06/03 01:13:17;;;;;;;15.57;14.13;;;19.00;99.90;;;;;;5096835;28;20463;-73
2021/06/03 01:15:47;;;;;;;25.40;15.77;;;19.00;99.90;;;;;;5105034;28;20456;-73
2021/06/03 01:18:14;;;;;;;16.47;14.87;;;19.00;99.90;;;;;;5094849;28;20822;-72
2021/06/03 01:20:42;;;;;;;18.17;16.40;;;18.90;99.90;;;;;;5091242;28;20469;-73
2021/06/03 01:23:16;;;;;;;18.60;14.77;;;18.90;99.90;;;;;;5099622;28;20518;-74
2021/06/03 01:25:45;;;;;;;16.57;14.87;;;18.90;99.90;;;;;;5091471;28;20472;-74
2021/06/03 01:28:13;;;;;;;16.73;15.33;;;18.80;99.90;;;;;;5099576;28;20481;-73
2021/06/03 01:30:43;;;;;;;16.67;14.90;;;18.80;99.90;;;;;;5096874;28;20462;-73
2021/06/03 01:33:12;;;;;;;14.03;13.03;;;18.80;99.90;;;;;;5097178;28;20463;-72
2021/06/03 01:35:42;;;;;;;16.37;14.80;;;18.80;99.90;;;;;;5092466;28;20476;-73
2021/06/03 01:38:11;;;;;;;16.47;14.70;;;18.90;99.90;;;;;;5097390;28;21202;-73
2021/06/03 01:40:39;;;;;;;20.20;15.27;;;18.80;99.90;;;;;;5090780;28;20462;-74
2021/06/03 01:43:07;;;;;;;15.33;14.30;;;18.80;99.90;;;;;;5098190;28;20460;-73
2021/06/03 01:45:34;;;;;;;15.47;14.10;;;18.80;99.90;;;;;;5095754;28;20560;-74
2021/06/03 01:48:02;;;;;;;15.40;13.87;;;18.80;99.90;;;;;;5098446;28;20878;-75
2021/06/03 01:50:29;;;;;;;21.73;15.47;;;18.80;99.90;;;;;;5099462;28;20473;-73
2021/06/03 01:52:56;;;;;;;16.30;14.80;;;18.80;99.90;;;;;;5095702;28;20469;-73
2021/06/03 01:55:24;;;;;;;16.37;15.07;;;18.80;99.90;;;;;;5093042;28;20464;-73
2021/06/03 01:57:51;;;;;;;16.23;14.67;;;18.70;99.90;;;;;;5094799;28;20477;-74
2021/06/03 02:00:22;;;;;;;16.60;15.20;;;18.70;99.90;;;;;;5095624;28;20453;-73
2021/06/03 02:02:48;;;;;;;18.07;14.83;;;18.60;99.90;;;;;;5094751;27;20954;-73
2021/06/03 02:05:15;;;;;;;16.70;14.00;;;18.60;99.90;;;;;;5101303;27;20843;-75
2021/06/03 02:07:43;;;;;;;16.37;15.17;;;18.60;99.90;;;;;;5097089;28;20463;-73
2021/06/03 02:10:13;;;;;;;15.43;14.43;;;18.60;99.90;;;;;;5103715;27;20468;-73
2021/06/03 02:12:46;;;;;;;15.43;13.90;;;18.60;99.90;;;;;;5108186;27;20517;-74
2021/06/03 02:15:15;;;;;;;14.57;13.57;;;18.60;99.90;;;;;;5108588;27;20465;-73
2021/06/03 02:17:47;;;;;;;15.90;14.80;;;18.50;99.90;;;;;;5115057;27;20605;-73
2021/06/03 02:20:16;;;;;;;17.20;15.47;;;18.40;99.90;;;;;;5108625;27;20468;-74
2021/06/03 02:22:48;;;;;;;16.47;15.30;;;18.30;99.90;;;;;;5104738;27;20863;-73
2021/06/03 02:25:15;;;;;;;16.67;15.23;;;18.10;99.90;;;;;;5100296;27;20527;-73
2021/06/03 02:27:44;;;;;;;16.30;15.20;;;18.00;99.90;;;;;;5101710;27;20461;-73
2021/06/03 02:30:11;;;;;;;18.23;16.93;;;17.80;99.90;;;;;;5107977;27;20814;-73
2021/06/03 02:32:38;;;;;;;18.40;16.80;;;17.60;99.90;;;;;;5107656;27;20458;-73
2021/06/03 02:35:10;;;;;;;18.53;17.00;;;17.50;99.90;;;;;;5103522;27;20491;-73
2021/06/03 02:37:39;;;;;;;19.60;18.30;;;17.40;99.90;;;;;;5099799;27;20460;-72
2021/06/03 02:40:08;;;;;;;18.27;17.17;;;17.20;99.90;;;;;;5107507;27;20998;-75
2021/06/03 02:42:35;;;;;;;19.03;17.33;;;17.20;99.90;;;;;;5109500;27;20477;-73
2021/06/03 02:45:01;;;;;;;18.40;16.90;;;17.10;99.90;;;;;;5108067;27;20461;-73
2021/06/03 02:47:28;;;;;;;19.47;17.60;;;17.00;99.90;;;;;;5095282;28;20465;-74
2021/06/03 02:49:55;;;;;;;17.43;16.20;;;16.90;99.90;;;;;;5094476;28;20625;-73
2021/06/03 02:52:23;;;;;;;17.97;16.87;;;16.90;99.90;;;;;;5098339;28;20457;-74
2021/06/03 02:54:49;;;;;;;17.30;16.10;;;16.90;99.90;;;;;;5092448;28;20909;-72
2021/06/03 02:57:16;;;;;;;17.13;15.93;;;16.90;99.90;;;;;;5096690;28;20510;-73
2021/06/03 02:59:42;;;;;;;16.43;15.33;;;17.00;99.90;;;;;;5094262;28;20461;-74
2021/06/03 03:02:08;;;;;;;18.20;16.53;;;17.10;99.90;;;;;;5090225;28;20485;-73
2021/06/03 03:04:34;;;;;;;18.13;15.60;;;17.10;99.90;;;;;;5098395;28;20960;-73
2021/06/03 03:07:01;;;;;;;16.27;14.90;;;17.30;99.90;;;;;;5097497;28;21186;-73
2021/06/03 03:09:28;;;;;;;16.33;14.87;;;17.40;99.90;;;;;;5096833;28;20457;-73
2021/06/03 03:11:55;;;;;;;16.20;14.70;;;17.40;99.90;;;;;;5092054;28;20469;-72
2021/06/03 03:14:22;;;;;;;18.33;14.30;;;17.40;99.90;;;;;;5095603;28;20496;-73
2021/06/03 03:16:48;;;;;;;17.07;15.60;;;17.50;99.90;;;;;;5097558;28;20468;-73
2021/06/03 03:19:14;;;;;;;20.73;15.10;;;17.50;99.90;;;;;;5097239;28;20811;-75
2021/06/03 03:21:41;;;;;;;24.90;15.63;;;17.60;99.90;;;;;;5089775;28;20548;-73
2021/06/03 03:24:07;;;;;;;22.50;14.83;;;17.60;99.90;;;;;;5096814;28;20990;-73
2021/06/03 03:26:36;;;;;;;17.67;16.17;;;17.60;99.90;;;;;;5091571;28;20519;-75
2021/06/03 03:29:02;;;;;;;16.67;15.30;;;17.60;99.90;;;;;;5093991;28;20824;-72
2021/06/03 03:31:29;;;;;;;16.43;15.10;;;17.60;99.90;;;;;;5093494;28;20461;-73
2021/06/03 03:34:02;;;;;;;22.03;16.00;;;17.50;99.90;;;;;;5089333;28;21109;-74
2021/06/03 03:36:28;;;;;;;18.10;16.20;;;17.50;99.90;;;;;;5096738;28;20540;-75
2021/06/03 03:38:55;;;;;;;26.23;15.73;;;17.50;99.90;;;;;;5099583;28;20653;-74
2021/06/03 03:41:21;;;;;;;17.17;15.53;;;17.50;99.90;;;;;;5093679;28;20495;-73
2021/06/03 03:43:50;;;;;;;22.60;17.37;;;17.50;99.90;;;;;;5095901;28;20461;-74
2021/06/03 03:46:16;;;;;;;18.80;15.87;;;17.50;99.90;;;;;;5100888;28;20462;-72
2021/06/03 03:48:43;;;;;;;24.87;15.90;;;17.40;99.90;;;;;;5097385;28;20514;-73
2021/06/03 03:51:12;;;;;;;21.33;15.97;;;17.40;99.90;;;;;;5105698;28;20465;-74
2021/06/03 03:53:39;;;;;;;29.00;15.83;;;17.50;99.90;;;;;;5100646;28;20512;-73
2021/06/03 03:56:05;;;;;;;21.07;16.40;;;17.50;99.90;;;;;;5100520;28;20464;-73
2021/06/03 03:58:36;;;;;;;23.83;15.27;;;17.50;99.90;;;;;;5101835;28;20461;-73
2021/06/03 04:01:04;;;;;;;18.90;15.60;;;17.50;99.90;;;;;;5101988;28;20461;-73
2021/06/03 04:03:31;;;;;;;29.37;16.77;;;17.60;99.90;;;;;;5098290;28;20488;-73
2021/06/03 04:05:57;;;;;;;26.03;17.23;;;17.60;99.90;;;;;;5090955;28;20461;-73
2021/06/03 04:08:24;;;;;;;21.83;15.83;;;17.60;99.90;;;;;;5096131;28;20501;-73
2021/06/03 04:10:51;;;;;;;26.23;16.43;;;17.70;99.90;;;;;;5098517;28;20468;-73
2021/06/03 04:13:17;;;;;;;25.57;16.60;;;17.70;99.90;;;;;;5094489;28;20597;-73
2021/06/03 04:15:44;;;;;;;22.33;16.03;;;17.80;99.90;;;;;;5097520;28;20495;-74
2021/06/03 04:18:12;;;;;;;26.00;16.13;;;17.80;99.90;;;;;;5097208;27;21009;-73
2021/06/03 04:20:38;;;;;;;29.33;16.40;;;18.00;99.90;;;;;;5095537;28;20481;-73
2021/06/03 04:23:07;;;;;;;21.20;16.00;;;18.10;99.90;;;;;;5092449;28;20465;-73
2021/06/03 04:25:33;;;;;;;26.23;15.40;;;18.10;99.90;;;;;;5099713;28;20483;-75
2021/06/03 04:28:00;;;;;;;26.87;17.20;;;18.10;99.90;;;;;;5097686;28;20466;-73
2021/06/03 04:30:28;;;;;;;21.80;16.10;;;18.10;99.90;;;;;;5100990;28;20557;-75
2021/06/03 04:32:55;;;;;;;27.10;15.90;;;18.10;99.90;;;;;;5099435;28;20513;-74
2021/06/03 04:35:25;;;;;;;24.50;16.70;;;18.10;99.90;;;;;;5093616;28;20956;-73
2021/06/03 04:37:53;;;;;;;17.10;15.40;;;18.20;99.90;;;;;;5095325;28;20464;-75
2021/06/03 04:40:22;;;;;;;18.70;16.37;;;18.20;99.90;;;;;;5089761;28;20554;-73
2021/06/03 04:42:49;;;;;;;19.93;15.80;;;18.30;99.90;;;;;;5096854;28;21261;-73
2021/06/03 04:45:17;;;;;;;18.67;15.00;;;18.40;99.90;;;;;;5099316;27;20490;-73
2021/06/03 04:47:44;;;;;;;17.23;15.80;;;18.50;99.90;;;;;;5097931;28;20454;-73
2021/06/03 04:50:11;;;;;;;17.23;14.00;;;18.60;99.90;;;;;;5095459;28;20454;-73
2021/06/03 04:52:39;;;;;;;23.03;14.50;;;18.80;99.90;;;;;;5095895;28;20822;-75
2021/06/03 04:55:10;;;;;;;16.50;14.97;;;18.80;99.90;;;;;;5092112;28;20497;-76
2021/06/03 04:57:37;;;;;;;18.30;14.70;;;19.00;99.90;;;;;;5089944;28;20477;-73
2021/06/03 05:00:06;;;;;;;16.40;15.30;;;19.10;99.90;;;;;;5096006;28;20474;-73
2021/06/03 05:02:32;;;;;;;16.43;15.00;;;19.20;99.90;;;;;;5098129;28;21007;-73
2021/06/03 05:04:59;;;;;;;16.97;15.23;;;19.30;99.90;;;;;;5099873;28;20485;-75
2021/06/03 05:07:25;;;;;;;17.20;15.77;;;19.30;99.90;;;;;;5096726;28;20844;-72
2021/06/03 05:09:53;;;;;;;16.93;15.17;;;19.40;99.90;;;;;;5100074;28;20477;-73
2021/06/03 05:12:19;;;;;;;15.47;14.50;;;19.60;99.90;;;;;;5093262;28;20468;-73
2021/06/03 05:14:45;;;;;;;16.10;13.83;;;19.60;99.90;;;;;;5082124;28;20493;-73
2021/06/03 05:17:12;;;;;;;15.70;14.10;;;19.90;99.90;;;;;;5090355;28;20817;-73
2021/06/03 05:19:38;;;;;;;14.63;13.33;;;20.10;99.90;;;;;;5092833;28;20468;-75
2021/06/03 05:22:06;;;;;;;17.87;14.17;;;20.30;99.90;;;;;;5095925;28;21113;-74
2021/06/03 05:24:32;;;;;;;15.97;13.53;;;20.40;99.90;;;;;;5096943;28;20476;-73
2021/06/03 05:27:01;;;;;;;15.53;14.10;;;20.60;99.90;;;;;;5100761;28;20496;-73
2021/06/03 05:29:28;;;;;;;15.37;13.80;;;21.00;99.90;;;;;;5093756;28;20749;-73
2021/06/03 05:31:54;;;;;;;17.07;15.57;;;21.20;99.90;;;;;;5094909;28;20454;-74
2021/06/03 05:34:21;;;;;;;20.10;13.27;;;21.40;99.90;;;;;;5096620;28;20575;-73
2021/06/03 05:36:47;;;;;;;16.73;13.73;;;21.60;99.90;;;;;;5088893;28;20493;-75
2021/06/03 05:39:14;;;;;;;15.20;13.03;;;21.90;99.90;;;;;;5092770;28;20538;-73
2021/06/03 05:41:40;;;;;;;14.67;13.43;;;21.80;99.90;;;;;;5096143;28;20461;-73
2021/06/03 05:44:09;;;;;;;14.03;12.97;;;21.80;99.90;;;;;;5095741;28;20449;-74
2021/06/03 05:46:36;;;;;;;15.00;13.80;;;22.00;99.90;;;;;;5094268;28;20458;-73
2021/06/03 05:49:03;;;;;;;15.70;14.40;;;22.00;99.90;;;;;;5088121;28;20469;-74
2021/06/03 05:51:30;;;;;;;26.60;13.53;;;22.00;99.90;;;;;;5092271;28;20453;-74
2021/06/03 05:53:57;;;;;;;15.93;13.60;;;21.90;99.90;;;;;;5097078;28;20987;-75
2021/06/03 05:56:25;;;;;;;19.07;13.60;;;21.90;99.90;;;;;;5088757;28;20457;-73
2021/06/03 05:58:51;;;;;;;16.47;13.53;;;21.90;99.90;;;;;;5091166;28;20990;-74
2021/06/03 06:01:19;;;;;;;21.23;14.50;;;21.90;99.90;;;;;;5094401;28;20480;-74
2021/06/03 06:03:49;;;;;;;27.63;24.50;;;21.90;99.90;;;;;;5096569;28;20473;-76
2021/06/03 06:09:00;;;;;;;31.57;28.60;;;21.50;99.90;;;;;;5091606;28;20524;-74
2021/06/03 06:11:30;;;;;;;34.37;31.23;;;21.40;99.90;;;;;;5092054;28;20501;-74
2021/06/03 06:13:56;;;;;;;32.17;29.27;;;21.10;99.90;;;;;;5093089;28;20904;-75
2021/06/03 06:16:24;;;;;;;32.60;29.10;;;21.10;99.90;;;;;;5094386;28;21063;-74
2021/06/03 06:18:52;;;;;;;36.60;30.10;;;20.90;99.90;;;;;;5096185;28;20458;-74
2021/06/03 06:21:20;;;;;;;32.87;29.43;;;20.90;99.90;;;;;;5092349;28;20960;-76
2021/06/03 06:23:48;;;;;;;31.80;28.87;;;20.80;99.90;;;;;;5094688;28;20990;-74
2021/06/03 06:26:14;;;;;;;30.00;27.10;;;20.80;99.90;;;;;;5094237;27;20457;-74
2021/06/03 06:28:41;;;;;;;30.20;27.37;;;20.90;99.90;;;;;;5096008;28;20453;-77
2021/06/03 06:31:07;;;;;;;31.43;28.10;;;21.00;99.90;;;;;;5086752;28;20469;-75
2021/06/03 06:33:35;;;;;;;29.83;26.43;;;21.20;99.90;;;;;;5095865;28;20855;-76
2021/06/03 06:36:04;;;;;;;27.87;25.23;;;21.20;99.90;;;;;;5091988;28;20500;-75
2021/06/03 06:38:31;;;;;;;28.20;25.33;;;21.30;99.90;;;;;;5092440;28;20500;-75
2021/06/03 06:40:58;;;;;;;36.90;23.60;;;21.20;99.90;;;;;;5090805;28;20472;-74
2021/06/03 06:43:24;;;;;;;25.53;21.77;;;21.20;99.90;;;;;;5086073;28;20467;-77
2021/06/03 06:45:51;;;;;;;23.43;21.30;;;21.20;99.90;;;;;;5093267;28;20468;-74
2021/06/03 06:48:18;;;;;;;21.20;19.47;;;21.30;99.90;;;;;;5093748;28;20496;-75
2021/06/03 06:50:49;;;;;;;21.20;19.27;;;21.30;99.90;;;;;;5097227;28;20445;-73
2021/06/03 06:53:15;;;;;;;18.73;17.20;;;21.40;99.90;;;;;;5094293;28;20461;-74
2021/06/03 06:55:43;;;;;;;19.67;17.67;;;21.40;99.90;;;;;;5093152;28;20484;-76
2021/06/03 06:58:09;;;;;;;19.30;17.17;;;21.40;99.90;;;;;;5093682;28;20539;-77
2021/06/03 07:00:37;;;;;;;20.63;18.47;;;21.50;99.90;;;;;;5095453;28;20469;-75
2021/06/03 07:03:06;;;;;;;21.33;16.63;;;21.60;99.90;;;;;;5087681;28;21082;-74
2021/06/03 07:05:33;;;;;;;21.53;17.90;;;21.70;99.90;;;;;;5095981;28;21026;-73
2021/06/03 07:08:01;;;;;;;28.83;17.37;;;21.80;99.90;;;;;;5089969;28;20472;-75
2021/06/03 07:10:28;;;;;;;18.03;16.13;;;22.10;99.90;;;;;;5093537;28;20462;-76
2021/06/03 07:12:54;;;;;;;21.87;17.13;;;22.10;99.90;;;;;;5093041;28;20458;-75
2021/06/03 07:15:21;;;;;;;16.57;15.40;;;22.20;99.90;;;;;;5094307;28;20505;-74
2021/06/03 07:17:47;;;;;;;24.07;16.30;;;22.30;99.90;;;;;;5091327;28;20457;-76
2021/06/03 07:20:15;;;;;;;24.80;15.43;;;22.50;99.90;;;;;;5104112;28;20461;-74
2021/06/03 07:22:44;;;;;;;20.10;16.33;;;22.50;99.90;;;;;;5100539;28;20464;-75
2021/06/03 07:25:15;;;;;;;27.70;16.50;;;22.60;99.90;;;;;;5095469;28;20553;-74
2021/06/03 07:27:43;;;;;;;23.37;16.23;;;22.60;99.90;;;;;;5095616;28;20465;-75
2021/06/03 07:30:12;;;;;;;19.17;15.60;;;22.80;99.90;;;;;;5096860;28;20462;-74
2021/06/03 07:32:39;;;;;;;28.20;15.63;;;22.80;99.90;;;;;;5098845;28;20465;-74
2021/06/03 07:35:09;;;;;;;17.13;15.30;;;22.70;99.90;;;;;;5102874;28;20777;-74
2021/06/03 07:37:37;;;;;;;16.33;15.00;;;22.70;99.90;;;;;;5096814;28;20989;-75
2021/06/03 07:40:04;;;;;;;20.40;16.00;;;22.70;99.90;;;;;;5099121;28;20975;-78
2021/06/03 07:42:33;;;;;;;17.73;15.97;;;22.70;99.90;;;;;;5090127;28;20465;-75
2021/06/03 07:44:59;;;;;;;27.47;15.33;;;22.80;99.90;;;;;;5089645;28;20483;-76
2021/06/03 07:47:25;;;;;;;24.23;16.70;;;22.90;99.90;;;;;;5101748;28;20458;-77
2021/06/03 07:49:52;;;;;;;21.27;16.37;;;22.90;99.90;;;;;;5094489;28;20484;-73
2021/06/03 07:52:18;;;;;;;22.37;16.60;;;23.00;99.90;;;;;;5091082;28;20470;-75
2021/06/03 07:54:44;;;;;;;20.83;15.13;;;23.10;99.90;;;;;;5092817;28;20513;-74
2021/06/03 07:57:11;;;;;;;15.87;14.53;;;23.20;99.90;;;;;;5097581;28;20477;-75
2021/06/03 07:59:39;;;;;;;15.60;14.50;;;23.30;99.90;;;;;;5094323;28;20703;-74
2021/06/03 08:02:05;;;;;;;16.10;14.67;;;23.50;99.90;;;;;;5099042;28;21017;-76
2021/06/03 08:04:31;;;;;;;17.47;15.43;;;23.70;99.90;;;;;;5102163;28;20458;-76
2021/06/03 08:06:58;;;;;;;16.03;14.80;;;23.80;99.90;;;;;;5099410;28;20467;-75
2021/06/03 08:09:24;;;;;;;16.03;14.83;;;23.90;99.90;;;;;;5098303;28;20452;-73
2021/06/03 08:11:51;;;;;;;16.70;15.43;;;23.90;99.90;;;;;;5098487;28;20458;-75
2021/06/03 08:14:17;;;;;;;16.50;15.50;;;24.00;99.90;;;;;;5102935;28;21000;-76
2021/06/03 08:16:45;;;;;;;16.70;15.50;;;24.10;99.90;;;;;;5101740;28;20522;-74
2021/06/03 08:19:12;;;;;;;16.53;15.30;;;24.30;99.90;;;;;;5095597;28;20463;-75
2021/06/03 08:21:38;;;;;;;15.60;14.50;;;24.20;99.90;;;;;;5094296;28;20462;-73
2021/06/03 08:24:05;;;;;;;16.40;15.30;;;24.50;99.90;;;;;;5094746;28;20462;-74
2021/06/03 08:26:32;;;;;;;16.93;15.67;;;24.90;99.90;;;;;;5096807;28;20767;-73
2021/06/03 08:28:58;;;;;;;16.93;15.83;;;25.00;99.90;;;;;;5100895;28;20477;-74
2021/06/03 08:31:26;;;;;;;16.73;15.63;;;25.40;99.90;;;;;;5098209;28;20465;-73
2021/06/03 08:34:00;;;;;;;17.30;15.73;;;25.90;99.90;;;;;;5095962;28;20464;-75
2021/06/03 08:36:27;;;;;;;16.07;15.07;;;25.70;99.90;;;;;;5093994;28;20884;-74
2021/06/03 08:38:54;;;;;;;17.50;16.30;;;25.40;99.90;;;;;;5098443;28;20547;-75
2021/06/03 08:41:20;;;;;;;17.43;15.87;;;24.70;99.90;;;;;;5092975;28;20740;-74
2021/06/03 08:43:48;;;;;;;14.60;13.60;;;25.10;99.90;;;;;;5100366;28;21667;-74
2021/06/03 08:46:14;;;;;;;13.73;12.93;;;25.10;99.90;;;;;;5099083;28;20964;-75
2021/06/03 08:48:41;;;;;;;13.10;12.30;;;24.90;99.90;;;;;;5093809;28;20956;-76
2021/06/03 08:51:09;;;;;;;13.27;12.33;;;24.50;99.90;;;;;;5092775;28;20458;-75
2021/06/03 08:53:36;;;;;;;15.43;14.47;;;24.50;99.90;;;;;;5093988;28;20573;-74
2021/06/03 08:56:17;;;;;;;23.70;21.90;;;23.80;99.90;;;;;;5096630;28;20493;-72
2021/06/03 08:58:45;;;;;;;31.80;29.20;;;23.80;99.90;;;;;;5100325;28;20467;-72
2021/06/03 09:01:12;;;;;;;32.13;29.53;;;23.20;99.90;;;;;;5097286;28;20453;-72
2021/06/03 09:03:39;;;;;;;32.57;29.17;;;22.60;99.90;;;;;;5094203;28;20488;-72
2021/06/03 09:06:06;;;;;;;28.47;25.87;;;22.10;99.90;;;;;;5093682;28;20454;-72
2021/06/03 09:08:37;;;;;;;21.60;20.20;;;21.90;99.90;;;;;;5092261;28;20510;-75
2021/06/03 09:11:05;;;;;;;20.10;18.83;;;21.90;99.90;;;;;;5103334;28;20461;-73
2021/06/03 09:13:34;;;;;;;22.53;21.03;;;21.80;99.90;;;;;;5098663;28;20465;-73
2021/06/03 09:16:14;;;;;;;20.40;19.10;;;21.20;99.90;;;;;;5094809;28;20493;-73
2021/06/03 09:18:42;;;;;;;19.40;18.20;;;21.30;99.90;;;;;;5095442;28;21047;-74
2021/06/03 09:21:12;;;;;;;18.17;17.17;;;21.50;99.90;;;;;;5098536;28;20481;-75
2021/06/03 09:23:42;;;;;;;16.83;15.93;;;21.80;99.90;;;;;;5094957;28;20453;-74
2021/06/03 09:26:11;;;;;;;15.10;14.30;;;21.90;99.90;;;;;;5096846;28;20553;-74
2021/06/03 09:28:39;;;;;;;14.07;13.47;;;22.20;99.90;;;;;;5095463;28;20951;-74
2021/06/03 09:31:10;;;;;;;13.93;13.33;;;22.60;99.90;;;;;;5093270;28;20481;-73
2021/06/03 09:33:38;;;;;;;14.50;13.80;;;22.80;99.90;;;;;;5085432;28;20610;-75
2021/06/03 09:36:06;;;;;;;13.70;13.10;;;22.70;99.90;;;;;;5098219;28;20524;-73
2021/06/03 09:38:33;;;;;;;13.67;13.07;;;23.10;99.90;;;;;;5097895;28;20462;-73
2021/06/03 09:41:02;;;;;;;15.60;14.80;;;23.40;99.90;;;;;;5094527;28;20489;-74
2021/06/03 09:43:28;;;;;;;15.27;14.47;;;23.00;99.90;;;;;;5093644;28;20462;-73
2021/06/03 09:45:57;;;;;;;15.00;14.20;;;23.00;99.90;;;;;;5099484;28;20513;-73
2021/06/03 09:48:35;;;;;;;18.20;17.10;;;23.10;99.90;;;;;;5094439;28;20870;-73
2021/06/03 09:51:19;;;;;;;16.53;15.63;;;23.00;99.90;;;;;;5097215;28;20473;-73
2021/06/03 09:54:02;;;;;;;18.10;17.00;;;23.00;99.90;;;;;;5097741;28;20457;-77
2021/06/03 09:56:31;;;;;;;17.40;16.40;;;22.50;99.90;;;;;;5097741;28;21114;-74
2021/06/03 09:58:58;;;;;;;17.60;16.50;;;22.60;99.90;;;;;;5093261;28;20476;-74
2021/06/03 10:02:03;;;;;;;16.80;15.80;;;22.70;99.90;;;;;;5089803;28;20457;-72
2021/06/03 10:04:39;;;;;;;17.63;16.63;;;22.80;99.90;;;;;;5008545;28;21019;-72
2021/06/03 10:07:18;;;;;;;17.83;16.73;;;22.70;99.90;;;;;;5086490;28;20463;-74
2021/06/03 10:09:53;;;;;;;18.73;17.63;;;22.70;99.90;;;;;;5097745;28;20469;-74
2021/06/03 10:12:43;;;;;;;18.13;16.97;;;22.60;99.90;;;;;;5096528;28;20536;-72
2021/06/03 10:15:16;;;;;;;18.10;17.00;;;22.60;99.90;;;;;;5095535;28;21002;-73
2021/06/03 10:17:52;;;;;;;20.47;19.03;;;22.80;99.90;;;;;;5098617;28;20453;-72
2021/06/03 10:20:20;;;;;;;21.40;19.90;;;22.40;99.90;;;;;;5095273;28;20456;-73
2021/06/03 10:22:48;;;;;;;19.93;18.63;;;22.30;99.90;;;;;;5092823;28;20529;-71
2021/06/03 10:25:17;;;;;;;20.50;19.20;;;22.30;99.90;;;;;;5096889;28;20466;-69
2021/06/03 10:27:47;;;;;;;20.47;19.17;;;22.30;99.90;;;;;;5089217;28;20537;-74
2021/06/03 10:30:17;;;;;;;18.93;17.73;;;22.40;99.90;;;;;;5095558;28;20461;-78
2021/06/03 10:32:45;;;;;;;19.30;18.10;;;22.40;99.90;;;;;;5091691;28;20469;-71
2021/06/03 10:35:14;;;;;;;18.30;17.30;;;22.50;99.90;;;;;;5095896;28;20481;-73
2021/06/03 10:37:42;;;;;;;19.00;17.70;;;22.90;99.90;;;;;;5092224;28;20553;-76
2021/06/03 10:40:10;;;;;;;16.63;15.73;;;22.80;99.90;;;;;;5094056;28;20459;-76
2021/06/03 10:42:37;;;;;;;17.00;16.10;;;23.00;99.90;;;;;;5093021;28;20923;-73
2021/06/03 10:45:07;;;;;;;16.93;16.03;;;23.30;99.90;;;;;;5099032;28;21138;-73
2021/06/03 10:47:33;;;;;;;17.87;16.87;;;23.70;99.90;;;;;;5092017;28;20464;-73
2021/06/03 10:50:02;;;;;;;17.30;16.40;;;23.90;99.90;;;;;;5093113;28;20498;-73
2021/06/03 10:52:30;;;;;;;17.07;16.27;;;24.30;99.90;;;;;;5092941;28;20468;-76
2021/06/03 10:54:57;;;;;;;18.03;17.13;;;24.60;99.90;;;;;;5093359;28;21177;-73
2021/06/03 10:57:45;;;;;;;17.67;16.77;;;25.00;99.90;;;;;;5095343;28;20503;-73
2021/06/03 11:00:32;;;;;;;18.30;17.40;;;25.30;99.90;;;;;;5097099;28;20882;-72
2021/06/03 11:03:01;;;;;;;18.90;17.90;;;25.50;99.90;;;;;;5097605;28;20480;-75
2021/06/03 11:05:30;;;;;;;26.43;24.53;;;25.60;99.90;;;;;;5096214;28;20448;-72
2021/06/03 11:07:57;;;;;;;23.50;22.00;;;25.80;99.90;;;;;;5093937;28;20460;-72
2021/06/03 11:10:27;;;;;;;23.40;21.50;;;25.90;99.90;;;;;;5094741;28;20464;-73
2021/06/03 11:13:14;;;;;;;23.23;21.33;;;26.30;99.90;;;;;;5095356;28;20458;-75
2021/06/03 11:16:04;;;;;;;23.53;21.77;;;27.00;99.90;;;;;;5094866;28;20529;-72
2021/06/03 11:19:07;;;;;;;24.33;22.17;;;27.00;99.90;;;;;;5083965;28;20967;-73
2021/06/03 11:21:57;;;;;;;24.70;22.80;;;27.30;99.90;;;;;;5096914;28;20556;-73
2021/06/03 11:24:48;;;;;;;24.40;22.70;;;27.20;99.90;;;;;;5092951;28;20453;-73
2021/06/03 11:27:18;;;;;;;24.00;22.50;;;26.90;99.90;;;;;;5093179;28;20465;-74
2021/06/03 11:29:56;;;;;;;24.10;22.40;;;26.80;99.90;;;;;;5096528;28;20453;-74
2021/06/03 11:32:26;;;;;;;21.70;20.00;;;27.30;99.90;;;;;;5092962;28;20478;-74
2021/06/03 11:34:54;;;;;;;20.90;19.20;;;27.60;99.90;;;;;;5088909;28;20489;-74
2021/06/03 11:37:22;;;;;;;20.53;19.13;;;28.40;99.90;;;;;;5088912;28;20481;-76
2021/06/03 11:39:51;;;;;;;20.13;18.93;;;29.80;99.90;;;;;;5096415;28;20465;-74
2021/06/03 11:42:30;;;;;;;19.43;18.23;;;30.00;99.90;;;;;;5095767;28;20539;-74
2021/06/03 11:45:17;;;;;;;19.10;17.73;;;30.10;99.90;;;;;;5092521;28;20464;-75
2021/06/03 11:48:16;;;;;;;19.00;17.40;;;30.30;99.90;;;;;;5092679;28;20466;-74
2021/06/03 11:51:00;;;;;;;19.43;17.90;;;30.90;99.90;;;;;;5084176;28;20841;-74
2021/06/03 11:53:30;;;;;;;19.37;18.10;;;31.20;99.90;;;;;;5092306;28;20552;-75
2021/06/03 11:55:58;;;;;;;19.73;18.23;;;31.50;99.90;;;;;;5095658;28;20496;-74
2021/06/03 11:58:28;;;;;;;21.13;19.83;;;31.80;99.90;;;;;;5094957;28;20483;-77
2021/06/03 12:00:57;;;;;;;19.93;18.53;;;32.90;99.90;;;;;;5092012;28;20449;-75
2021/06/03 12:03:36;;;;;;;21.43;19.90;;;32.90;99.90;;;;;;5096161;28;20517;-74
2021/06/03 12:06:06;;;;;;;22.17;20.60;;;31.80;99.90;;;;;;5095772;28;20461;-75
2021/06/03 12:08:36;;;;;;;21.57;19.47;;;31.10;99.90;;;;;;5091651;28;20461;-74
2021/06/03 12:11:07;;;;;;;25.97;24.27;;;30.40;99.90;;;;;;5098549;28;20488;-82
2021/06/03 12:13:34;;;;;;;61.60;40.77;;;29.50;99.90;;;;;;5101553;28;20822;-74
2021/06/03 12:16:01;;;;;;;37.63;34.73;;;28.00;99.90;;;;;;5097174;28;21022;-70
2021/06/03 12:18:37;;;;;;;30.90;28.50;;;26.90;99.90;;;;;;5099596;28;20465;-72
2021/06/03 12:21:05;;;;;;;31.00;28.70;;;26.10;99.90;;;;;;5103392;28;20498;-72
2021/06/03 12:23:31;;;;;;;27.93;25.93;;;25.60;99.90;;;;;;5099779;27;20460;-73
2021/06/03 12:25:58;;;;;;;26.10;24.20;;;24.50;99.90;;;;;;5105266;27;20837;-72
2021/06/03 12:28:24;;;;;;;26.40;24.57;;;24.10;99.90;;;;;;5095677;28;20841;-75
2021/06/03 12:30:51;;;;;;;23.17;21.57;;;23.70;99.90;;;;;;5101415;28;20971;-77
2021/06/03 12:36:56;;;;;;;22.80;21.30;;;23.20;99.90;;;;;;4976174;28;20487;-73
2021/06/03 12:39:23;;;;;;;374.23;65.20;;;22.80;99.90;;;;;;5096079;28;20876;-74
2021/06/03 12:41:53;;;;;;;24.20;22.60;;;22.50;99.90;;;;;;5103581;28;20462;-78